Time;durP1;ratioP1;P1;durP2;ratioP2;P2;SDS_P1;SDS_P2;PMS_P1;PMS_P2;Temp;Humidity;BMP_temperature;BMP_pressure;BME280_temperature;BME280_humidity;BME280_pressure;Samples;Min_cycle;Max_cycle;Signal;HPM_P1;HPM_P2
2021/05/29 00:01:59;;;;;;;;;;;13.00;48.20;;;;;;5062395;28;20377;-82
2021/05/29 00:04:27;;;;;;;;;;;12.80;48.10;;;;;;5060439;28;19919;-83
2021/05/29 00:06:53;;;;;;;;;;;12.80;48.10;;;;;;5060361;28;20369;-83
2021/05/29 00:09:18;;;;;;;;;;;12.70;48.10;;;;;;5059955;28;19942;-82
2021/05/29 00:11:44;;;;;;;;;;;12.70;48.20;;;;;;5062708;28;19919;-82
2021/05/29 00:14:09;;;;;;;;;;;12.70;48.30;;;;;;5059417;28;19913;-83
2021/05/29 00:16:37;;;;;;;;;;;12.70;48.30;;;;;;5061858;28;19923;-83
2021/05/29 00:19:03;;;;;;;;;;;12.60;48.30;;;;;;5060151;28;19949;-82
2021/05/29 00:21:28;;;;;;;;;;;12.70;48.40;;;;;;5060539;28;19912;-82
2021/05/29 00:23:54;;;;;;;;;;;12.50;48.30;;;;;;5060814;28;19962;-82
2021/05/29 00:26:19;;;;;;;;;;;12.60;49.10;;;;;;5067690;28;19912;-83
2021/05/29 00:28:45;;;;;;;;;;;12.50;48.50;;;;;;5063201;28;19909;-83
2021/05/29 00:31:11;;;;;;;;;;;12.40;48.50;;;;;;5060419;28;19917;-83
2021/05/29 00:33:36;;;;;;;;;;;12.40;48.50;;;;;;5054930;28;19909;-82
2021/05/29 00:36:02;;;;;;;;;;;12.30;49.10;;;;;;5045425;28;19952;-82
2021/05/29 00:38:27;;;;;;;;;;;12.30;48.50;;;;;;5060307;28;19913;-83
2021/05/29 00:40:53;;;;;;;;;;;12.30;48.60;;;;;;5060353;28;20274;-83
2021/05/29 00:43:18;;;;;;;;;;;12.30;48.70;;;;;;5061459;28;19913;-83
2021/05/29 00:45:44;;;;;;;;;;;12.40;48.90;;;;;;5060791;28;19955;-83
2021/05/29 00:48:09;;;;;;;;;;;12.20;48.80;;;;;;5069033;28;20050;-82
2021/05/29 00:50:47;;;;;;;;;;;12.20;48.80;;;;;;5071833;28;19912;-83
2021/05/29 00:53:13;;;;;;;;;;;12.10;48.80;;;;;;5042383;28;19913;-83
2021/05/29 00:55:38;;;;;;;;;;;12.10;48.90;;;;;;5040256;28;19905;-82
2021/05/29 00:58:04;;;;;;;;;;;12.10;48.90;;;;;;5057511;28;19912;-82
2021/05/29 01:00:30;;;;;;;;;;;12.10;49.00;;;;;;5060069;28;19909;-82
2021/05/29 01:02:55;;;;;;;;;;;12.00;49.00;;;;;;5059612;28;20312;-83
2021/05/29 01:05:21;;;;;;;;;;;12.00;49.10;;;;;;5061557;28;19915;-83
2021/05/29 01:07:53;;;;;;;;;;;12.10;49.20;;;;;;5041218;28;20318;-83
2021/05/29 01:10:20;;;;;;;;;;;12.00;49.20;;;;;;5041412;28;19909;-83
2021/05/29 01:12:46;;;;;;;;;;;11.90;49.10;;;;;;5058290;28;19938;-83
2021/05/29 01:15:12;;;;;;;;;;;11.90;49.10;;;;;;5058899;28;20424;-83
2021/05/29 01:17:38;;;;;;;;;;;11.90;49.20;;;;;;5044463;28;19928;-83
2021/05/29 01:20:04;;;;;;;;;;;11.90;49.20;;;;;;5047052;28;19999;-82
2021/05/29 01:22:46;;;;;;;;;;;11.80;49.20;;;;;;5059328;28;19952;-83
2021/05/29 01:25:12;;;;;;;;;;;11.80;49.30;;;;;;5062525;28;20269;-83
2021/05/29 01:27:38;;;;;;;;;;;11.80;49.30;;;;;;5058382;28;19913;-83
2021/05/29 01:30:05;;;;;;;;;;;11.70;49.30;;;;;;5055933;28;19914;-83
2021/05/29 01:32:34;;;;;;;;;;;11.70;49.40;;;;;;5047102;28;19966;-83
2021/05/29 01:35:06;;;;;;;;;;;11.70;49.40;;;;;;5060373;28;19913;-82
2021/05/29 01:37:34;;;;;;;;;;;11.70;49.50;;;;;;5042052;28;20288;-83
2021/05/29 01:40:02;;;;;;;;;;;11.70;49.60;;;;;;5052834;28;19908;-83
2021/05/29 01:42:29;;;;;;;;;;;11.60;49.50;;;;;;5041226;28;19935;-83
2021/05/29 01:44:55;;;;;;;;;;;11.60;49.60;;;;;;5058127;28;19913;-82
2021/05/29 01:47:20;;;;;;;;;;;11.60;49.70;;;;;;5058649;28;19952;-83
2021/05/29 01:49:46;;;;;;;;;;;11.50;49.60;;;;;;5059374;28;19913;-83
2021/05/29 01:52:11;;;;;;;;;;;11.50;49.60;;;;;;5058393;28;20438;-83
2021/05/29 01:54:37;;;;;;;;;;;11.60;49.80;;;;;;5056110;28;20438;-83
2021/05/29 01:57:02;;;;;;;;;;;11.50;49.80;;;;;;5055703;28;19919;-82
2021/05/29 01:59:28;;;;;;;;;;;11.40;49.70;;;;;;5058882;28;19909;-83
2021/05/29 02:01:53;;;;;;;;;;;11.40;49.80;;;;;;5058248;28;20014;-82
2021/05/29 02:04:19;;;;;;;;;;;11.40;49.80;;;;;;5058822;28;19976;-83
2021/05/29 02:06:44;;;;;;;;;;;11.30;49.80;;;;;;5053736;28;19913;-83
2021/05/29 02:09:10;;;;;;;;;;;11.30;49.90;;;;;;5039597;28;19909;-82
2021/05/29 02:11:38;;;;;;;;;;;11.30;50.00;;;;;;5046936;28;20362;-83
2021/05/29 02:14:03;;;;;;;;;;;11.30;50.00;;;;;;5060060;28;19951;-83
2021/05/29 02:16:29;;;;;;;;;;;11.20;50.00;;;;;;5057180;28;19917;-83
2021/05/29 02:18:57;;;;;;;;;;;11.20;50.10;;;;;;5059438;28;19916;-83
2021/05/29 02:21:22;;;;;;;;;;;11.20;50.20;;;;;;5047780;28;20376;-83
2021/05/29 02:23:49;;;;;;;;;;;11.10;50.80;;;;;;5058490;28;19908;-82
2021/05/29 02:26:16;;;;;;;;;;;11.10;50.20;;;;;;5059072;28;19916;-83
2021/05/29 02:28:42;;;;;;;;;;;11.10;50.30;;;;;;5059090;28;19920;-83
2021/05/29 02:31:18;;;;;;;;;;;11.10;50.30;;;;;;5039361;28;19952;-82
2021/05/29 02:33:43;;;;;;;;;;;11.00;50.30;;;;;;5050786;28;19963;-83
2021/05/29 02:36:09;;;;;;;;;;;11.00;50.40;;;;;;5041535;28;19925;-83
2021/05/29 02:38:36;;;;;;;;;;;11.00;50.40;;;;;;5058345;28;19962;-83
2021/05/29 02:41:03;;;;;;;;;;;11.00;50.40;;;;;;5056807;28;19955;-83
2021/05/29 02:43:31;;;;;;;;;;;10.90;50.40;;;;;;5059068;28;19909;-83
2021/05/29 02:45:56;;;;;;;;;;;11.00;50.60;;;;;;5053667;28;20007;-82
2021/05/29 02:48:22;;;;;;;;;;;11.00;50.60;;;;;;5059831;28;19945;-83
2021/05/29 02:50:47;;;;;;;;;;;10.80;50.50;;;;;;5056702;28;20401;-83
2021/05/29 02:53:14;;;;;;;;;;;10.90;50.60;;;;;;5039387;28;19913;-82
2021/05/29 02:55:40;;;;;;;;;;;10.70;50.50;;;;;;5051510;28;20017;-83
2021/05/29 02:58:06;;;;;;;;;;;10.80;50.70;;;;;;5057785;28;19947;-83
2021/05/29 03:00:33;;;;;;;;;;;10.70;50.70;;;;;;5059113;28;19940;-83
2021/05/29 03:02:59;;;;;;;;;;;10.80;50.80;;;;;;5039737;28;19932;-82
2021/05/29 03:05:26;;;;;;;;;;;10.70;50.80;;;;;;5048840;28;20000;-82
2021/05/29 03:07:51;;;;;;;;;;;10.70;50.80;;;;;;5061942;28;19912;-81
2021/05/29 03:10:19;;;;;;;;;;;10.70;50.90;;;;;;5059172;28;19913;-82
2021/05/29 03:12:44;;;;;;;;;;;10.70;50.90;;;;;;5047047;28;19917;-82
2021/05/29 03:15:11;;;;;;;;;;;10.70;51.00;;;;;;5057248;28;19913;-82
2021/05/29 03:17:37;;;;;;;;;;;10.60;50.90;;;;;;5055890;28;19916;-82
2021/05/29 03:20:06;;;;;;;;;;;10.60;51.00;;;;;;5061669;28;19959;-82
2021/05/29 03:22:32;;;;;;;;;;;10.60;51.00;;;;;;5061132;28;20288;-82
2021/05/29 03:25:02;;;;;;;;;;;10.60;51.10;;;;;;5056622;28;19917;-82
2021/05/29 03:27:27;;;;;;;;;;;10.60;51.10;;;;;;5073979;28;20598;-82
2021/05/29 03:29:56;;;;;;;;;;;10.60;51.10;;;;;;5053752;28;19909;-82
2021/05/29 03:32:21;;;;;;;;;;;10.50;51.10;;;;;;5055913;28;19917;-82
2021/05/29 03:34:46;;;;;;;;;;;10.60;51.20;;;;;;5061323;28;20459;-82
2021/05/29 03:37:14;;;;;;;;;;;10.60;51.20;;;;;;5061196;28;20000;-82
2021/05/29 03:39:40;;;;;;;;;;;10.60;51.20;;;;;;5047484;28;19909;-82
2021/05/29 03:42:06;;;;;;;;;;;10.60;51.10;;;;;;5060745;28;19919;-82
2021/05/29 03:44:31;;;;;;;;;;;10.60;51.10;;;;;;5062952;28;19987;-83
2021/05/29 03:46:57;;;;;;;;;;;10.50;51.10;;;;;;5061883;28;19947;-83
2021/05/29 03:49:22;;;;;;;;;;;10.50;51.20;;;;;;5061196;28;19909;-83
2021/05/29 03:51:48;;;;;;;;;;;10.50;51.80;;;;;;5054996;28;19984;-83
2021/05/29 03:54:13;;;;;;;;;;;10.50;51.30;;;;;;5061748;28;19919;-83
2021/05/29 03:56:39;;;;;;;;;;;10.50;51.40;;;;;;5062197;28;19921;-83
2021/05/29 03:59:04;;;;;;;;;;;10.50;51.40;;;;;;5067193;28;19916;-83
2021/05/29 04:01:38;;;;;;;;;;;10.50;51.40;;;;;;5071790;28;19993;-82
2021/05/29 04:04:06;;;;;;;;;;;10.70;51.50;;;;;;5062805;28;20005;-83
2021/05/29 04:06:31;;;;;;;;;;;10.60;51.50;;;;;;5062195;28;19998;-83
2021/05/29 04:08:56;;;;;;;;;;;10.60;51.50;;;;;;5053244;28;19912;-83
2021/05/29 04:11:22;;;;;;;;;;;10.70;51.50;;;;;;5060841;28;19908;-83
2021/05/29 04:13:48;;;;;;;;;;;10.70;51.50;;;;;;5060124;28;19921;-83
2021/05/29 04:16:19;;;;;;;;;;;10.70;51.50;;;;;;5061151;28;19917;-83
2021/05/29 04:18:44;;;;;;;;;;;10.90;51.60;;;;;;5061611;28;19913;-83
2021/05/29 04:21:10;;;;;;;;;;;10.90;51.60;;;;;;5062213;28;19934;-83
2021/05/29 04:23:35;;;;;;;;;;;10.90;51.50;;;;;;5054458;28;19920;-83
2021/05/29 04:26:01;;;;;;;;;;;11.00;51.50;;;;;;5049247;28;19909;-83
2021/05/29 04:28:29;;;;;;;;;;;11.10;51.60;;;;;;5065719;28;19917;-83
2021/05/29 04:30:54;;;;;;;;;;;11.30;51.90;;;;;;5059915;28;19912;-83
2021/05/29 04:33:25;;;;;;;;;;;11.20;51.50;;;;;;5055781;28;19928;-83
2021/05/29 04:35:51;;;;;;;;;;;11.30;51.60;;;;;;5058971;28;19920;-83
2021/05/29 04:38:16;;;;;;;;;;;11.40;51.60;;;;;;5052075;28;19913;-83
2021/05/29 04:40:42;;;;;;;;;;;11.40;51.60;;;;;;5057576;28;19913;-83
2021/05/29 04:43:07;;;;;;;;;;;11.50;51.60;;;;;;5060456;28;19913;-83
2021/05/29 04:45:33;;;;;;;;;;;11.60;51.60;;;;;;5054808;28;19919;-83
2021/05/29 04:47:58;;;;;;;;;;;11.60;51.60;;;;;;5059720;28;19913;-82
2021/05/29 04:50:24;;;;;;;;;;;11.70;51.60;;;;;;5059325;28;19920;-83
2021/05/29 04:52:49;;;;;;;;;;;11.80;51.70;;;;;;5059793;28;19963;-83
2021/05/29 04:55:18;;;;;;;;;;;11.80;51.60;;;;;;5053487;28;19954;-83
2021/05/29 04:57:43;;;;;;;;;;;11.90;51.70;;;;;;5060772;28;19920;-83
2021/05/29 05:00:11;;;;;;;;;;;11.90;51.70;;;;;;5061037;28;20365;-83
2021/05/29 05:02:37;;;;;;;;;;;12.00;51.70;;;;;;5059365;28;19947;-83
2021/05/29 05:05:03;;;;;;;;;;;12.10;51.70;;;;;;5044639;28;19913;-83
2021/05/29 05:07:28;;;;;;;;;;;12.20;51.80;;;;;;5044420;28;19936;-83
2021/05/29 05:09:54;;;;;;;;;;;12.30;51.80;;;;;;5046427;28;19920;-83
2021/05/29 05:12:22;;;;;;;;;;;12.30;51.70;;;;;;5056066;28;19988;-83
2021/05/29 05:14:47;;;;;;;;;;;12.30;51.70;;;;;;5057994;28;19916;-83
2021/05/29 05:17:13;;;;;;;;;;;12.50;51.70;;;;;;5058231;28;21194;-83
2021/05/29 05:19:38;;;;;;;;;;;12.60;51.80;;;;;;5060607;28;19913;-83
2021/05/29 05:22:04;;;;;;;;;;;12.70;51.70;;;;;;5060385;28;19915;-83
2021/05/29 05:24:29;;;;;;;;;;;12.80;51.80;;;;;;5055097;28;19920;-83
2021/05/29 05:26:55;;;;;;;;;;;12.70;51.60;;;;;;5057129;28;19938;-83
2021/05/29 05:29:23;;;;;;;;;;;12.90;51.70;;;;;;5060186;28;19980;-82
2021/05/29 05:31:49;;;;;;;;;;;13.00;51.70;;;;;;5062549;28;19913;-83
2021/05/29 05:34:16;;;;;;;;;;;13.10;51.80;;;;;;5052219;28;19928;-83
2021/05/29 05:36:42;;;;;;;;;;;13.20;51.70;;;;;;5043656;28;19972;-82
2021/05/29 05:39:10;;;;;;;;;;;13.40;51.80;;;;;;5059828;28;20004;-83
2021/05/29 05:41:38;;;;;;;;;;;13.50;51.70;;;;;;5061357;28;19909;-82
2021/05/29 05:44:04;;;;;;;;;;;13.60;51.70;;;;;;5060621;28;19919;-82
2021/05/29 05:46:35;;;;;;;;;;;13.80;51.60;;;;;;5060462;28;20397;-82
2021/05/29 05:49:18;;;;;;;;;;;13.90;51.60;;;;;;5059958;28;19998;-82
2021/05/29 05:52:04;;;;;;;;;;;14.10;51.60;;;;;;5060533;28;19913;-83
2021/05/29 05:54:34;;;;;;;;;;;14.30;51.50;;;;;;5052984;28;19967;-82
2021/05/29 05:57:00;;;;;;;;;;;14.60;51.60;;;;;;5059306;28;19909;-82
2021/05/29 05:59:25;;;;;;;;;;;15.10;51.50;;;;;;5060385;28;19913;-82
2021/05/29 06:01:51;;;;;;;;;;;16.00;51.30;;;;;;5061439;28;19916;-82
2021/05/29 06:04:19;;;;;;;;;;;18.60;50.50;;;;;;5058014;28;20019;-84
2021/05/29 06:06:50;;;;;;;;;;;22.70;47.40;;;;;;5063196;28;19972;-83
2021/05/29 06:09:15;;;;;;;;;;;26.50;43.30;;;;;;5062009;28;20008;-83
2021/05/29 06:11:44;;;;;;;;;;;29.50;40.30;;;;;;5052743;28;19987;-83
2021/05/29 06:19:30;;;;;;;;;;;36.00;36.30;;;;;;5063279;28;19935;-83
2021/05/29 06:22:05;;;;;;;;;;;38.10;35.40;;;;;;5061793;28;20294;-84
2021/05/29 06:24:31;;;;;;;;;;;39.50;34.60;;;;;;5063166;28;19924;-82
2021/05/29 06:26:57;;;;;;;;;;;40.40;34.10;;;;;;5073922;28;20274;-82
2021/05/29 06:29:31;;;;;;;;;;;41.30;33.80;;;;;;5065066;28;20202;-81
2021/05/29 06:31:57;;;;;;;;;;;42.20;33.50;;;;;;5062365;28;19960;-81
2021/05/29 06:34:23;;;;;;;;;;;42.80;33.10;;;;;;5062343;28;19913;-82
2021/05/29 06:37:12;;;;;;;;;;;43.60;33.00;;;;;;5063150;28;19923;-82
2021/05/29 06:39:50;;;;;;;;;;;;;;;;;;;;;
2021/05/29 06:42:32;;;;;;;;;;;44.70;32.20;;;;;;5060566;28;19976;-81
2021/05/29 06:44:57;;;;;;;;;;;45.50;31.80;;;;;;5061834;28;19917;-82
2021/05/29 06:47:27;;;;;;;;;;;46.70;31.30;;;;;;5057760;28;19912;-81
2021/05/29 06:50:11;;;;;;;;;;;47.80;30.40;;;;;;5062867;28;19940;-81
2021/05/29 06:52:40;;;;;;;;;;;48.80;29.90;;;;;;5061116;28;19913;-82
2021/05/29 07:01:04;;;;;;;;;;;53.00;28.80;;;;;;5045142;28;19948;-83
2021/05/29 07:03:29;;;;;;;;;;;54.10;28.60;;;;;;5050102;28;19924;-82
2021/05/29 07:05:55;;;;;;;;;;;54.90;28.40;;;;;;5053710;28;19913;-82
2021/05/29 07:08:20;;;;;;;;;;;55.70;28.20;;;;;;5053416;28;19913;-83
2021/05/29 07:10:46;;;;;;;;;;;56.10;27.90;;;;;;5053184;28;19912;-81
2021/05/29 07:13:19;;;;;;;;;;;56.60;27.80;;;;;;5052520;28;19985;-82
2021/05/29 07:15:47;;;;;;;;;;;57.10;27.80;;;;;;5054914;28;19917;-82
2021/05/29 07:18:15;;;;;;;;;;;57.40;27.50;;;;;;5052315;28;19920;-82
2021/05/29 07:20:49;;;;;;;;;;;57.30;27.40;;;;;;5044605;28;20004;-82
2021/05/29 07:23:15;;;;;;;;;;;57.50;27.40;;;;;;5043749;28;19916;-81
2021/05/29 07:25:43;;;;;;;;;;;57.50;27.20;;;;;;5054971;28;19919;-82
2021/05/29 07:28:20;;;;;;;;;;;57.30;27.00;;;;;;5056573;28;20003;-82
2021/05/29 07:30:52;;;;;;;;;;;57.20;26.90;;;;;;5045328;28;19913;-81
2021/05/29 07:33:23;;;;;;;;;;;57.40;27.00;;;;;;5042251;28;19924;-82
2021/05/29 07:35:48;;;;;;;;;;;57.60;26.90;;;;;;5054215;28;19966;-81
2021/05/29 07:38:36;;;;;;;;;;;57.90;26.90;;;;;;5051776;28;19913;-81
2021/05/29 07:41:24;;;;;;;;;;;58.10;26.80;;;;;;5039648;28;19914;-81
2021/05/29 07:46:50;;;;;;;;;;;58.40;26.70;;;;;;5057051;28;20495;-82
2021/05/29 07:49:27;;;;;;;;;;;58.30;26.60;;;;;;5010296;28;19980;-81
2021/05/29 07:52:15;;;;;;;;;;;58.20;26.40;;;;;;5054940;28;19913;-81
2021/05/29 07:54:47;;;;;;;;;;;57.80;26.30;;;;;;5045800;28;19913;-81
2021/05/29 07:57:15;;;;;;;;;;;57.80;26.50;;;;;;5050980;28;20365;-83
2021/05/29 07:59:45;;;;;;;;;;;57.90;26.40;;;;;;5037454;28;19913;-82
2021/05/29 08:02:29;;;;;;;;;;;57.80;26.40;;;;;;5043162;28;19967;-82
2021/05/29 08:04:57;;;;;;;;;;;57.80;26.40;;;;;;5051635;28;19992;-81
2021/05/29 08:07:25;;;;;;;;;;;57.70;26.20;;;;;;5040076;28;19968;-82
2021/05/29 08:10:04;;;;;;;;;;;57.20;26.30;;;;;;5039059;28;19925;-81
2021/05/29 08:12:39;;;;;;;;;;;57.20;26.40;;;;;;5056547;28;19919;-82
2021/05/29 08:15:17;;;;;;;;;;;56.90;26.20;;;;;;5047317;28;20322;-82
2021/05/29 08:17:46;;;;;;;;;;;56.80;26.30;;;;;;5058166;28;20388;-81
2021/05/29 08:20:12;;;;;;;;;;;56.80;26.20;;;;;;5059516;28;20277;-81
2021/05/29 08:22:58;;;;;;;;;;;56.90;26.40;;;;;;5054894;28;19928;-82
2021/05/29 08:25:35;;;;;;;;;;;57.00;26.30;;;;;;5055929;28;19919;-81
2021/05/29 08:28:00;;;;;;;;;;;56.70;26.20;;;;;;5060287;28;19913;-81
2021/05/29 08:30:27;;;;;;;;;;;56.50;26.20;;;;;;5040809;28;19913;-81
2021/05/29 08:32:59;;;;;;;;;;;56.20;26.30;;;;;;5049687;28;19924;-81
2021/05/29 08:35:26;;;;;;;;;;;56.30;26.30;;;;;;5057366;28;20210;-82
2021/05/29 08:37:51;;;;;;;;;;;55.90;26.10;;;;;;5050695;28;19913;-81
2021/05/29 08:40:18;;;;;;;;;;;55.80;26.20;;;;;;5059880;28;20391;-82
2021/05/29 08:42:44;;;;;;;;;;;55.80;26.30;;;;;;5042241;28;20668;-82
2021/05/29 08:45:13;;;;;;;;;;;55.90;26.30;;;;;;5051513;28;19940;-81
2021/05/29 08:47:38;;;;;;;;;;;55.60;26.10;;;;;;5059901;28;19908;-81
2021/05/29 08:50:12;;;;;;;;;;;55.20;26.10;;;;;;5049193;28;19955;-81
2021/05/29 08:52:44;;;;;;;;;;;55.20;26.30;;;;;;5048502;28;19935;-82
2021/05/29 08:55:12;;;;;;;;;;;55.20;26.30;;;;;;5051134;28;19978;-81
2021/05/29 08:57:40;;;;;;;;;;;55.20;26.40;;;;;;5046154;28;19916;-81
2021/05/29 09:00:33;;;;;;;;;;;55.20;26.50;;;;;;5044029;28;19920;-81
2021/05/29 09:03:01;;;;;;;;;;;55.10;26.40;;;;;;5032281;28;19917;-82
2021/05/29 09:05:51;;;;;;;;;;;55.00;26.50;;;;;;5057196;28;19920;-81
2021/05/29 09:08:21;;;;;;;;;;;54.50;26.20;;;;;;5061240;28;19944;-81
2021/05/29 09:10:55;;;;;;;;;;;53.60;26.20;;;;;;5051010;28;19913;-81
2021/05/29 09:13:21;;;;;;;;;;;53.20;26.40;;;;;;5042500;28;19913;-81
2021/05/29 09:15:49;;;;;;;;;;;52.90;26.20;;;;;;5056427;28;19917;-82
2021/05/29 09:18:33;;;;;;;;;;;52.40;26.30;;;;;;5062349;28;19917;-81
2021/05/29 09:21:18;;;;;;;;;;;52.30;26.30;;;;;;5057990;28;20296;-81
2021/05/29 09:23:51;;;;;;;;;;;50.80;26.00;;;;;;5064304;28;19931;-81
2021/05/29 09:26:17;;;;;;;;;;;50.10;26.00;;;;;;5067045;28;19955;-81
2021/05/29 09:28:43;;;;;;;;;;;50.20;26.00;;;;;;5069798;28;19909;-81
2021/05/29 09:31:14;;;;;;;;;;;50.10;25.80;;;;;;5049861;28;19914;-81
2021/05/29 09:33:52;;;;;;;;;;;50.00;26.00;;;;;;5056609;28;20258;-81
2021/05/29 09:36:18;;;;;;;;;;;50.30;26.00;;;;;;5059949;28;19912;-80
2021/05/29 09:38:54;;;;;;;;;;;50.30;26.10;;;;;;5061117;28;19913;-81
2021/05/29 09:41:40;;;;;;;;;;;50.40;26.30;;;;;;5061569;28;19999;-81
2021/05/29 09:44:06;;;;;;;;;;;50.50;26.30;;;;;;5047402;28;19917;-81
2021/05/29 09:46:51;;;;;;;;;;;50.60;26.30;;;;;;5056142;28;19912;-81
2021/05/29 09:49:20;;;;;;;;;;;50.50;26.30;;;;;;5042632;28;19936;-81
2021/05/29 09:51:48;;;;;;;;;;;50.50;26.50;;;;;;5056784;28;19935;-81
2021/05/29 09:54:14;;;;;;;;;;;50.30;26.40;;;;;;5056938;28;19934;-82
2021/05/29 09:56:41;;;;;;;;;;;49.90;26.40;;;;;;5052644;28;19944;-82
2021/05/29 09:59:08;;;;;;;;;;;49.30;26.70;;;;;;5058869;28;19912;-81
2021/05/29 10:02:07;;;;;;;;;;;48.80;26.70;;;;;;5051032;28;19919;-81
2021/05/29 10:04:40;;;;;;;;;;;48.70;26.40;;;;;;5049793;28;19931;-81
2021/05/29 10:07:13;;;;;;;;;;;47.60;25.20;;;;;;5055734;28;19967;-80
2021/05/29 10:09:42;;;;;;;;;;;46.50;26.10;;;;;;5045195;28;19912;-82
2021/05/29 10:12:08;;;;;;;;;;;46.80;26.20;;;;;;5060085;28;19913;-82
2021/05/29 10:14:41;;;;;;;;;;;45.90;26.50;;;;;;5042254;28;19966;-82
2021/05/29 10:17:11;;;;;;;;;;;46.00;26.40;;;;;;5052940;28;20397;-81
2021/05/29 10:19:45;;;;;;;;;;;44.40;26.50;;;;;;5043613;28;19913;-81
2021/05/29 10:22:20;;;;;;;;;;;44.10;27.20;;;;;;5043079;28;19937;-82
2021/05/29 10:24:47;;;;;;;;;;;44.60;27.00;;;;;;5045601;28;19913;-81
2021/05/29 10:27:37;;;;;;;;;;;45.00;26.50;;;;;;5066618;28;19913;-82
2021/05/29 10:30:06;;;;;;;;;;;45.10;26.50;;;;;;5061769;28;19913;-82
2021/05/29 10:32:31;;;;;;;;;;;46.00;26.30;;;;;;5059838;28;19920;-82
2021/05/29 10:35:13;;;;;;;;;;;47.00;26.50;;;;;;5062868;28;20268;-82
2021/05/29 10:38:02;;;;;;;;;;;47.00;26.20;;;;;;5052597;28;19920;-82
2021/05/29 10:40:40;;;;;;;;;;;46.50;25.80;;;;;;5043272;28;19913;-81
2021/05/29 10:43:08;;;;;;;;;;;46.40;25.80;;;;;;5056503;28;19920;-82
2021/05/29 10:45:35;;;;;;;;;;;46.40;25.70;;;;;;5058238;28;19914;-82
2021/05/29 10:48:19;;;;;;;;;;;46.20;25.30;;;;;;5037334;28;19921;-82
2021/05/29 10:53:44;;;;;;;;;;;46.00;25.30;;;;;;5054519;28;19913;-82
2021/05/29 10:56:19;;;;;;;;;;;45.70;25.60;;;;;;5014619;28;19913;-81
2021/05/29 10:58:56;;;;;;;;;;;45.30;24.80;;;;;;5045401;28;19913;-81
2021/05/29 11:01:23;;;;;;;;;;;45.10;24.80;;;;;;5050993;28;20007;-81
2021/05/29 11:04:07;;;;;;;;;;;45.10;24.90;;;;;;5061502;28;19913;-82
2021/05/29 11:06:35;;;;;;;;;;;45.20;25.00;;;;;;5052202;28;19913;-81
2021/05/29 11:09:02;;;;;;;;;;;45.20;24.90;;;;;;5060474;28;19909;-81
2021/05/29 11:11:30;;;;;;;;;;;45.10;24.60;;;;;;5060925;28;19958;-82
2021/05/29 11:14:02;;;;;;;;;;;44.90;24.60;;;;;;5061440;28;19920;-82
2021/05/29 11:16:46;;;;;;;;;;;44.70;24.50;;;;;;5061060;28;20440;-82
2021/05/29 11:19:15;;;;;;;;;;;44.60;24.50;;;;;;5051938;28;19918;-82
2021/05/29 11:21:59;;;;;;;;;;;44.30;24.50;;;;;;5041763;28;20007;-82
2021/05/29 11:24:31;;;;;;;;;;;43.60;24.20;;;;;;5049883;28;19968;-82
2021/05/29 11:27:07;;;;;;;;;;;;;;;;;;;;;
2021/05/29 11:30:08;;;;;;;;;;;43.50;24.80;;;;;;5053043;28;20003;-81
2021/05/29 11:35:25;;;;;;;;;;;40.80;25.00;;;;;;5062696;28;19936;-82
2021/05/29 11:37:54;;;;;;;;;;;40.70;25.20;;;;;;5060088;28;19913;-82
2021/05/29 11:40:20;;;;;;;;;;;41.10;25.20;;;;;;5061402;28;19909;-82
2021/05/29 11:42:51;;;;;;;;;;;40.50;24.90;;;;;;5060000;28;19983;-82
2021/05/29 11:45:18;;;;;;;;;;;39.10;25.50;;;;;;5045064;28;19913;-83
2021/05/29 11:47:44;;;;;;;;;;;39.10;25.80;;;;;;5045621;28;19909;-83
2021/05/29 11:50:18;;;;;;;;;;;39.50;25.60;;;;;;5048395;28;19943;-83
2021/05/29 11:52:45;;;;;;;;;;;39.90;25.40;;;;;;5049361;28;19984;-82
2021/05/29 11:55:11;;;;;;;;;;;39.90;25.00;;;;;;5051595;28;19941;-83
2021/05/29 11:57:59;;;;;;;;;;;39.30;24.90;;;;;;5043648;28;19919;-82
2021/05/29 12:00:25;;;;;;;;;;;38.60;25.40;;;;;;5048714;28;19992;-82
2021/05/29 12:02:51;;;;;;;;;;;39.00;25.40;;;;;;5045712;28;19959;-83
2021/05/29 12:05:19;;;;;;;;;;;39.50;25.20;;;;;;5051334;28;19913;-83
2021/05/29 12:08:17;;;;;;;;;;;39.70;24.90;;;;;;5065266;28;19909;-82
2021/05/29 12:10:47;;;;;;;;;;;39.80;24.80;;;;;;5047068;28;19913;-82
2021/05/29 12:13:31;;;;;;;;;;;40.10;24.90;;;;;;5064373;28;19909;-82
2021/05/29 12:16:01;;;;;;;;;;;40.30;24.70;;;;;;5063045;28;19915;-82
2021/05/29 12:18:37;;;;;;;;;;;40.50;24.70;;;;;;5052021;28;20004;-82
2021/05/29 12:21:03;;;;;;;;;;;40.50;24.60;;;;;;5043195;28;19920;-82
2021/05/29 12:23:28;;;;;;;;;;;40.40;24.50;;;;;;5043202;28;19984;-81
2021/05/29 12:25:54;;;;;;;;;;;40.30;24.60;;;;;;5062043;28;19975;-81
2021/05/29 12:28:21;;;;;;;;;;;39.40;24.80;;;;;;5068544;28;19909;-81
2021/05/29 12:30:48;;;;;;;;;;;37.80;25.30;;;;;;5050623;28;19996;-82
2021/05/29 12:33:17;;;;;;;;;;;36.80;25.80;;;;;;5054940;28;19912;-83
2021/05/29 12:35:43;;;;;;;;;;;37.00;25.90;;;;;;5053788;28;20288;-82
2021/05/29 12:38:08;;;;;;;;;;;37.40;25.80;;;;;;5048736;28;19909;-82
2021/05/29 12:40:35;;;;;;;;;;;37.70;25.60;;;;;;5062799;28;19916;-82
2021/05/29 12:43:01;;;;;;;;;;;37.70;25.40;;;;;;5063309;28;20420;-82
2021/05/29 12:45:28;;;;;;;;;;;37.60;25.40;;;;;;5063241;28;19913;-82
2021/05/29 12:48:05;;;;;;;;;;;37.40;25.30;;;;;;5058450;28;19919;-83
2021/05/29 12:50:32;;;;;;;;;;;37.20;25.50;;;;;;5062743;28;20071;-82
2021/05/29 12:53:09;;;;;;;;;;;36.60;25.80;;;;;;5062332;28;19952;-82
2021/05/29 12:55:35;;;;;;;;;;;36.70;26.00;;;;;;5059088;28;19961;-82
2021/05/29 12:58:11;;;;;;;;;;;36.70;26.00;;;;;;5052838;28;19917;-82
2021/05/29 13:09:26;;;;;;;;;;;33.50;27.10;;;;;;5043255;28;19917;-81
2021/05/29 13:11:57;;;;;;;;;;;33.10;27.50;;;;;;5045471;28;19936;-82
2021/05/29 13:14:52;;;;;;;;;;;33.50;27.40;;;;;;5062154;28;19908;-81
2021/05/29 13:17:40;;;;;;;;;;;33.80;27.20;;;;;;5062149;28;19987;-81
2021/05/29 13:20:16;;;;;;;;;;;33.90;27.10;;;;;;5041837;28;19927;-82
2021/05/29 13:22:42;;;;;;;;;;;33.90;27.10;;;;;;5057074;28;19912;-81
2021/05/29 13:25:19;;;;;;;;;;;34.00;27.20;;;;;;5049436;28;20053;-81
2021/05/29 13:27:52;;;;;;;;;;;34.00;27.10;;;;;;5074437;28;19916;-81
2021/05/29 13:30:19;;;;;;;;;;;34.00;27.20;;;;;;5079716;28;19909;-81
2021/05/29 13:32:49;;;;;;;;;;;33.90;27.20;;;;;;5082647;28;20300;-81
2021/05/29 13:35:27;;;;;;;;;;;33.60;27.30;;;;;;5085806;28;19908;-81
2021/05/29 13:37:53;;;;;;;;;;;33.30;27.40;;;;;;5076140;28;19909;-81
2021/05/29 13:40:21;;;;;;;;;;;33.10;27.50;;;;;;5061441;28;19909;-81
2021/05/29 13:45:53;;;;;;;;;;;32.30;27.80;;;;;;5046057;28;19913;-81
2021/05/29 13:48:27;;;;;;;;;;;32.20;27.90;;;;;;5060180;28;20004;-81
2021/05/29 13:50:55;;;;;;;;;;;31.90;28.00;;;;;;5060005;28;19968;-81
2021/05/29 13:53:23;;;;;;;;;;;31.50;28.10;;;;;;5059742;28;19909;-81
2021/05/29 13:55:51;;;;;;;;;;;31.00;28.30;;;;;;5059747;28;19995;-81
2021/05/29 13:58:17;;;;;;;;;;;30.50;28.60;;;;;;5060601;28;20368;-81
2021/05/29 14:00:44;;;;;;;;;;;30.00;28.90;;;;;;5060766;28;19931;-81
2021/05/29 14:03:10;;;;;;;;;;;29.70;29.10;;;;;;5059597;28;19963;-81
2021/05/29 14:05:44;;;;;;;;;;;29.50;29.30;;;;;;5054369;28;20488;-81
2021/05/29 14:08:15;;;;;;;;;;;29.20;29.30;;;;;;5063196;28;19913;-81
2021/05/29 14:13:57;;;;;;;;;;;28.20;29.50;;;;;;5041564;28;19913;-80
2021/05/29 14:16:43;;;;;;;;;;;27.80;29.80;;;;;;5044871;28;19916;-81
2021/05/29 14:22:07;;;;;;;;;;;27.40;30.00;;;;;;5043433;28;20352;-81
2021/05/29 14:24:42;;;;;;;;;;;27.20;30.20;;;;;;5044952;28;19908;-81
2021/05/29 14:27:10;;;;;;;;;;;27.00;30.20;;;;;;5073074;28;19955;-80
2021/05/29 14:29:36;;;;;;;;;;;27.00;30.40;;;;;;5059347;28;19912;-81
2021/05/29 14:32:05;;;;;;;;;;;27.00;30.40;;;;;;5041085;28;19920;-81
2021/05/29 14:34:33;;;;;;;;;;;26.90;30.40;;;;;;5056986;28;19909;-81
2021/05/29 14:37:01;;;;;;;;;;;26.70;30.50;;;;;;5056306;28;19913;-81
2021/05/29 14:39:37;;;;;;;;;;;;;;;;;;;;;
2021/05/29 14:42:03;;;;;;;;;;;26.40;30.80;;;;;;5056101;28;19972;-81
2021/05/29 14:45:23;;;;;;;;;;;26.40;30.90;;;;;;5060683;28;19951;-81
2021/05/29 14:47:50;;;;;;;;;;;26.40;30.90;;;;;;4971956;28;19917;-82
2021/05/29 14:50:16;;;;;;;;;;;26.30;30.90;;;;;;5038770;28;20324;-81
2021/05/29 14:52:42;;;;;;;;;;;26.20;31.00;;;;;;5046241;28;19927;-83
2021/05/29 14:55:10;;;;;;;;;;;26.10;31.00;;;;;;5043134;28;20000;-81
2021/05/29 14:57:38;;;;;;;;;;;26.20;31.10;;;;;;5058344;28;19948;-81
2021/05/29 15:00:05;;;;;;;;;;;26.00;31.20;;;;;;5057931;28;20007;-81
2021/05/29 15:02:31;;;;;;;;;;;26.00;31.30;;;;;;5058180;28;19962;-81
2021/05/29 15:04:58;;;;;;;;;;;26.00;31.30;;;;;;5042273;28;19996;-81
2021/05/29 15:07:24;;;;;;;;;;;26.00;31.30;;;;;;5042098;28;20117;-81
2021/05/29 15:09:53;;;;;;;;;;;26.00;31.40;;;;;;5049130;28;19968;-81
2021/05/29 15:12:28;;;;;;;;;;;25.90;31.50;;;;;;5038235;28;19923;-80
2021/05/29 15:14:53;;;;;;;;;;;25.90;31.60;;;;;;5053242;28;19948;-81